Katowice International Airport

EPKT · 西里西亚省, 波兰

罗盘
风向 的 风向 的 风向 到 风向 160° Katowice International Airport 8/26
风: 4 kt, 2 beaufort

1 kt

4 kt
改变
0 ft 1.000 2.000 3.000 4.000 5.000
Cloud Cloud Cloud Cloud
SCT 700
Cloud Cloud Cloud Cloud Cloud Cloud
BKN 3.100
METAR LZZI 031700Z 16004KT 120V240 3500 -SN BR SCT007 BKN031 M01/M01 Q1010 RESN

METAR Katowice International Airport - EPKT/KTW

Katowice International Airport是,波兰中的中型机场。 该机场有一条跑道: 8/26. 该领域的国际民航组织标志是EPKT 它的国际航空运输协会代码是KTW.

这份报告是针对2023年2月3日 18:00, 当地时间在Žilina Airport进行的。

机场观察

风向为160°,速度为4 kt。 风向在120°和240°之间变化。

可见度为3,5 km。

有疏云,零星散落的云朵在700 ft的高度 和 碎云在3.100 ft的高度。 破损或更高的上限为3.100 ft。

当前天气为光 雪, 薄雾。 温度为-1 °C,阵风为-6 °C。 露点为-1 °C,相对湿度为100%。 海平面上的气压为1010 hPa (QNH)。 最近是雪。

白天

今天,太阳从07:15升起,在16:39降落。 这适用于Katowice International Airport,世界夏令时可能有所不同。 当地时间与世界标准时间之间的时差为+1 小时。 当前,没有夏令时有效。

公司介绍

我们没有关于这个机场的公司信息。

体会

到Vliegles.nl去找飞行课程,跳伞和其他飞行体验。 浏览页面,了解Katowice International Airport附近所有可用的活动。 你也可以使用搜索功能来寻找你所在地附近的特定飞行课程、跳伞或其他飞行体验。

跑道

Id 标题 侧风 逆风 侧风 %
8/26 090°-270° 4 kt 1 kt 94 %

逆风成分最大的方向会被突出显示,并用于横风计算。 这并不一定意味着这个方向在使用。

乌云

700 ft SCT 疏云,零星散落的云朵
3.100 ft BKN 碎云

温度 & 天气

天气 光 雪
薄雾
最近的
温度 -1 °C
露点 -1 °C
相对湿度 100%
风寒 -6 °C
Kp-index 0 (0-9)

白天

日出
07:14 (12:54)
中午
11:59
日落
16:44

小工具

你想在你的网站上有一个关于Katowice International Airport的当前航空天气(METAR)的小部件吗?

显示HTML代码

我们和第三方通过cookies跟踪您在我们网站上的互联网行为。如果你继续,我们认为你同意我们的饼干政策